sensor_id;sensor_type;location;lat;lon;timestamp;temperature;humidity
1225;DHT22;602;48.000;7.840;2022-10-15T00:01:23;17.10;99.90
1225;DHT22;602;48.000;7.840;2022-10-15T00:03:51;17.20;99.90
1225;DHT22;602;48.000;7.840;2022-10-15T00:06:20;17.20;99.90
1225;DHT22;602;48.000;7.840;2022-10-15T00:08:47;17.20;99.90
1225;DHT22;602;48.000;7.840;2022-10-15T00:11:16;17.20;99.90
1225;DHT22;602;48.000;7.840;2022-10-15T00:13:45;17.20;99.90
1225;DHT22;602;48.000;7.840;2022-10-15T00:16:14;17.30;99.90
1225;DHT22;602;48.000;7.840;2022-10-15T00:18:45;17.30;99.90
1225;DHT22;602;48.000;7.840;2022-10-15T00:21:14;17.20;99.90
1225;DHT22;602;48.000;7.840;2022-10-15T00:23:43;17.20;99.90
1225;DHT22;602;48.000;7.840;2022-10-15T00:26:11;17.20;99.90
1225;DHT22;602;48.000;7.840;2022-10-15T00:28:39;17.30;99.90
1225;DHT22;602;48.000;7.840;2022-10-15T00:31:09;17.30;99.90
1225;DHT22;602;48.000;7.840;2022-10-15T00:33:37;17.20;99.90
1225;DHT22;602;48.000;7.840;2022-10-15T00:36:05;17.30;99.90
1225;DHT22;602;48.000;7.840;2022-10-15T00:38:33;17.30;99.90
1225;DHT22;602;48.000;7.840;2022-10-15T00:41:00;17.30;99.90
1225;DHT22;602;48.000;7.840;2022-10-15T00:43:38;17.30;99.90
1225;DHT22;602;48.000;7.840;2022-10-15T00:46:19;17.30;99.90
1225;DHT22;602;48.000;7.840;2022-10-15T00:48:50;17.30;99.90
1225;DHT22;602;48.000;7.840;2022-10-15T00:51:18;17.40;99.90
1225;DHT22;602;48.000;7.840;2022-10-15T00:53:47;17.30;99.90
1225;DHT22;602;48.000;7.840;2022-10-15T00:56:17;17.30;99.90
1225;DHT22;602;48.000;7.840;2022-10-15T00:58:45;17.30;99.90
1225;DHT22;602;48.000;7.840;2022-10-15T01:01:14;17.40;99.90
1225;DHT22;602;48.000;7.840;2022-10-15T01:03:41;17.40;99.90
1225;DHT22;602;48.000;7.840;2022-10-15T01:06:08;17.40;99.90
1225;DHT22;602;48.000;7.840;2022-10-15T01:08:35;17.40;99.90
1225;DHT22;602;48.000;7.840;2022-10-15T01:11:10;17.40;99.90
1225;DHT22;602;48.000;7.840;2022-10-15T01:13:46;17.40;99.90
1225;DHT22;602;48.000;7.840;2022-10-15T01:16:20;17.20;99.90
1225;DHT22;602;48.000;7.840;2022-10-15T01:18:54;17.30;99.90
1225;DHT22;602;48.000;7.840;2022-10-15T01:21:27;17.30;99.90
1225;DHT22;602;48.000;7.840;2022-10-15T01:27:21;17.30;99.90
1225;DHT22;602;48.000;7.840;2022-10-15T01:30:16;17.30;99.90
1225;DHT22;602;48.000;7.840;2022-10-15T01:32:48;17.30;99.90
1225;DHT22;602;48.000;7.840;2022-10-15T01:35:25;17.30;99.90
1225;DHT22;602;48.000;7.840;2022-10-15T01:38:02;17.40;99.90
1225;DHT22;602;48.000;7.840;2022-10-15T01:40:34;17.40;99.90
1225;DHT22;602;48.000;7.840;2022-10-15T01:43:03;17.20;99.90
1225;DHT22;602;48.000;7.840;2022-10-15T01:45:35;17.30;99.90
1225;DHT22;602;48.000;7.840;2022-10-15T01:48:08;17.30;99.90
1225;DHT22;602;48.000;7.840;2022-10-15T01:50:39;17.30;99.90
1225;DHT22;602;48.000;7.840;2022-10-15T01:53:08;17.30;99.90
1225;DHT22;602;48.000;7.840;2022-10-15T01:55:37;17.30;99.90
1225;DHT22;602;48.000;7.840;2022-10-15T01:58:09;17.30;99.90
1225;DHT22;602;48.000;7.840;2022-10-15T02:00:39;17.30;99.90
1225;DHT22;602;48.000;7.840;2022-10-15T02:03:07;17.20;99.90
1225;DHT22;602;48.000;7.840;2022-10-15T02:05:37;17.20;99.90
1225;DHT22;602;48.000;7.840;2022-10-15T02:08:11;17.20;99.90
1225;DHT22;602;48.000;7.840;2022-10-15T02:10:48;17.20;99.90
1225;DHT22;602;48.000;7.840;2022-10-15T02:13:23;17.30;99.90
1225;DHT22;602;48.000;7.840;2022-10-15T02:16:01;17.20;99.90
1225;DHT22;602;48.000;7.840;2022-10-15T02:18:35;17.20;99.90
1225;DHT22;602;48.000;7.840;2022-10-15T02:21:07;17.20;99.90
1225;DHT22;602;48.000;7.840;2022-10-15T02:23:42;17.30;99.90
1225;DHT22;602;48.000;7.840;2022-10-15T02:26:15;17.30;99.90
1225;DHT22;602;48.000;7.840;2022-10-15T02:28:49;17.20;99.90
1225;DHT22;602;48.000;7.840;2022-10-15T02:31:23;17.30;99.90
1225;DHT22;602;48.000;7.840;2022-10-15T02:33:51;17.20;99.90
1225;DHT22;602;48.000;7.840;2022-10-15T02:36:21;17.20;99.90
1225;DHT22;602;48.000;7.840;2022-10-15T02:38:50;17.20;99.90
1225;DHT22;602;48.000;7.840;2022-10-15T02:41:21;17.20;99.90
1225;DHT22;602;48.000;7.840;2022-10-15T02:43:50;17.20;99.90
1225;DHT22;602;48.000;7.840;2022-10-15T02:46:23;17.20;99.90
1225;DHT22;602;48.000;7.840;2022-10-15T02:48:50;17.10;99.90
1225;DHT22;602;48.000;7.840;2022-10-15T02:51:19;17.20;99.90
1225;DHT22;602;48.000;7.840;2022-10-15T02:53:49;17.10;99.90
1225;DHT22;602;48.000;7.840;2022-10-15T02:56:17;17.10;99.90
1225;DHT22;602;48.000;7.840;2022-10-15T02:58:44;17.10;99.90
1225;DHT22;602;48.000;7.840;2022-10-15T03:01:14;17.10;99.90
1225;DHT22;602;48.000;7.840;2022-10-15T03:03:45;17.10;99.90
1225;DHT22;602;48.000;7.840;2022-10-15T03:06:12;17.10;99.90
1225;DHT22;602;48.000;7.840;2022-10-15T03:08:41;17.00;99.90
1225;DHT22;602;48.000;7.840;2022-10-15T03:11:11;17.00;99.90
1225;DHT22;602;48.000;7.840;2022-10-15T03:13:39;17.00;99.90
1225;DHT22;602;48.000;7.840;2022-10-15T03:16:12;17.00;99.90
1225;DHT22;602;48.000;7.840;2022-10-15T03:18:44;17.00;99.90
1225;DHT22;602;48.000;7.840;2022-10-15T03:21:14;17.00;99.90
1225;DHT22;602;48.000;7.840;2022-10-15T03:23:43;17.00;99.90
1225;DHT22;602;48.000;7.840;2022-10-15T03:26:10;17.00;99.90
1225;DHT22;602;48.000;7.840;2022-10-15T03:28:41;17.00;99.90
1225;DHT22;602;48.000;7.840;2022-10-15T03:31:11;16.90;99.90
1225;DHT22;602;48.000;7.840;2022-10-15T03:33:38;16.80;99.90
1225;DHT22;602;48.000;7.840;2022-10-15T03:36:13;16.80;99.90
1225;DHT22;602;48.000;7.840;2022-10-15T03:38:40;16.80;99.90
1225;DHT22;602;48.000;7.840;2022-10-15T03:41:07;16.80;99.90
1225;DHT22;602;48.000;7.840;2022-10-15T03:43:35;16.80;99.90
1225;DHT22;602;48.000;7.840;2022-10-15T03:46:02;16.80;99.90
1225;DHT22;602;48.000;7.840;2022-10-15T03:48:31;16.80;99.90
1225;DHT22;602;48.000;7.840;2022-10-15T03:50:58;16.80;99.90
1225;DHT22;602;48.000;7.840;2022-10-15T03:53:27;16.80;99.90
1225;DHT22;602;48.000;7.840;2022-10-15T03:55:54;16.80;99.90
1225;DHT22;602;48.000;7.840;2022-10-15T03:58:21;16.80;99.90
1225;DHT22;602;48.000;7.840;2022-10-15T04:00:48;16.80;99.90
1225;DHT22;602;48.000;7.840;2022-10-15T04:03:15;16.80;99.90
1225;DHT22;602;48.000;7.840;2022-10-15T04:05:50;16.80;99.90
1225;DHT22;602;48.000;7.840;2022-10-15T04:08:17;16.80;99.90
1225;DHT22;602;48.000;7.840;2022-10-15T04:10:50;16.80;99.90
1225;DHT22;602;48.000;7.840;2022-10-15T04:13:17;16.80;99.90
1225;DHT22;602;48.000;7.840;2022-10-15T04:15:50;16.80;99.90
1225;DHT22;602;48.000;7.840;2022-10-15T04:18:17;16.70;99.90
1225;DHT22;602;48.000;7.840;2022-10-15T04:20:46;16.70;99.90
1225;DHT22;602;48.000;7.840;2022-10-15T04:23:16;16.70;99.90
1225;DHT22;602;48.000;7.840;2022-10-15T04:25:46;16.70;99.90
1225;DHT22;602;48.000;7.840;2022-10-15T04:28:17;16.80;99.90
1225;DHT22;602;48.000;7.840;2022-10-15T04:30:44;16.80;99.90
1225;DHT22;602;48.000;7.840;2022-10-15T04:33:11;16.80;99.90
1225;DHT22;602;48.000;7.840;2022-10-15T04:35:37;16.80;99.90
1225;DHT22;602;48.000;7.840;2022-10-15T04:38:04;16.80;99.90
1225;DHT22;602;48.000;7.840;2022-10-15T04:40:34;16.90;99.90
1225;DHT22;602;48.000;7.840;2022-10-15T04:43:06;16.80;99.90
1225;DHT22;602;48.000;7.840;2022-10-15T04:45:57;16.90;99.90
1225;DHT22;602;48.000;7.840;2022-10-15T04:48:52;16.90;99.90
1225;DHT22;602;48.000;7.840;2022-10-15T04:51:28;16.90;99.90
1225;DHT22;602;48.000;7.840;2022-10-15T04:54:20;16.90;99.90
1225;DHT22;602;48.000;7.840;2022-10-15T04:57:08;16.80;99.90
1225;DHT22;602;48.000;7.840;2022-10-15T05:02:58;16.90;99.90
1225;DHT22;602;48.000;7.840;2022-10-15T05:05:34;16.90;99.90
1225;DHT22;602;48.000;7.840;2022-10-15T05:08:03;16.90;99.90
1225;DHT22;602;48.000;7.840;2022-10-15T05:10:32;16.90;99.90
1225;DHT22;602;48.000;7.840;2022-10-15T05:13:00;16.90;99.90
1225;DHT22;602;48.000;7.840;2022-10-15T05:15:30;16.90;99.90
1225;DHT22;602;48.000;7.840;2022-10-15T05:18:00;16.90;99.90
1225;DHT22;602;48.000;7.840;2022-10-15T05:20:32;16.90;99.90
1225;DHT22;602;48.000;7.840;2022-10-15T05:23:01;16.90;99.90
1225;DHT22;602;48.000;7.840;2022-10-15T05:25:32;16.90;99.90
1225;DHT22;602;48.000;7.840;2022-10-15T05:28:03;16.90;99.90
1225;DHT22;602;48.000;7.840;2022-10-15T05:30:37;16.80;99.90
1225;DHT22;602;48.000;7.840;2022-10-15T05:33:07;16.80;99.90
1225;DHT22;602;48.000;7.840;2022-10-15T05:35:40;16.80;99.90
1225;DHT22;602;48.000;7.840;2022-10-15T05:38:15;16.80;99.90
1225;DHT22;602;48.000;7.840;2022-10-15T05:40:55;16.80;99.90
1225;DHT22;602;48.000;7.840;2022-10-15T05:43:30;16.80;99.90
1225;DHT22;602;48.000;7.840;2022-10-15T05:45:58;16.70;99.90
1225;DHT22;602;48.000;7.840;2022-10-15T05:48:30;16.80;99.90
1225;DHT22;602;48.000;7.840;2022-10-15T05:51:03;16.80;99.90
1225;DHT22;602;48.000;7.840;2022-10-15T05:53:32;16.80;99.90
1225;DHT22;602;48.000;7.840;2022-10-15T05:56:01;16.80;99.90
1225;DHT22;602;48.000;7.840;2022-10-15T05:58:31;16.70;99.90
1225;DHT22;602;48.000;7.840;2022-10-15T06:01:01;16.80;99.90
1225;DHT22;602;48.000;7.840;2022-10-15T06:03:30;16.80;99.90
1225;DHT22;602;48.000;7.840;2022-10-15T06:05:57;16.80;99.90
1225;DHT22;602;48.000;7.840;2022-10-15T06:08:24;16.70;99.90
1225;DHT22;602;48.000;7.840;2022-10-15T06:10:53;16.80;99.90
1225;DHT22;602;48.000;7.840;2022-10-15T06:13:20;16.80;99.90
1225;DHT22;602;48.000;7.840;2022-10-15T06:15:47;16.80;99.90
1225;DHT22;602;48.000;7.840;2022-10-15T06:18:14;16.90;99.90
1225;DHT22;602;48.000;7.840;2022-10-15T06:20:43;16.90;99.90
1225;DHT22;602;48.000;7.840;2022-10-15T06:23:10;16.90;99.90
1225;DHT22;602;48.000;7.840;2022-10-15T06:25:37;17.00;99.90
1225;DHT22;602;48.000;7.840;2022-10-15T06:28:05;16.90;99.90
1225;DHT22;602;48.000;7.840;2022-10-15T06:30:32;17.00;99.90
1225;DHT22;602;48.000;7.840;2022-10-15T06:32:59;17.00;99.90
1225;DHT22;602;48.000;7.840;2022-10-15T06:35:26;17.00;99.90
1225;DHT22;602;48.000;7.840;2022-10-15T06:37:59;17.00;99.90
1225;DHT22;602;48.000;7.840;2022-10-15T06:40:26;17.00;99.90
1225;DHT22;602;48.000;7.840;2022-10-15T06:43:05;17.00;99.90
1225;DHT22;602;48.000;7.840;2022-10-15T06:45:49;17.00;99.90
1225;DHT22;602;48.000;7.840;2022-10-15T06:48:18;17.00;99.90
1225;DHT22;602;48.000;7.840;2022-10-15T06:50:47;16.90;99.90
1225;DHT22;602;48.000;7.840;2022-10-15T06:53:19;16.90;99.90
1225;DHT22;602;48.000;7.840;2022-10-15T06:55:50;17.00;99.90
1225;DHT22;602;48.000;7.840;2022-10-15T06:58:21;17.10;99.90
1225;DHT22;602;48.000;7.840;2022-10-15T07:00:50;17.10;99.90
1225;DHT22;602;48.000;7.840;2022-10-15T07:03:18;17.10;99.90
1225;DHT22;602;48.000;7.840;2022-10-15T07:05:47;17.10;99.90
1225;DHT22;602;48.000;7.840;2022-10-15T07:08:15;17.10;99.90
1225;DHT22;602;48.000;7.840;2022-10-15T07:10:42;17.10;99.90
1225;DHT22;602;48.000;7.840;2022-10-15T07:13:09;17.10;99.90
1225;DHT22;602;48.000;7.840;2022-10-15T07:15:36;17.10;99.90
1225;DHT22;602;48.000;7.840;2022-10-15T07:18:02;17.20;99.90
1225;DHT22;602;48.000;7.840;2022-10-15T07:20:30;17.10;99.90
1225;DHT22;602;48.000;7.840;2022-10-15T07:22:57;17.10;99.90
1225;DHT22;602;48.000;7.840;2022-10-15T07:25:26;17.20;99.90
1225;DHT22;602;48.000;7.840;2022-10-15T07:27:53;17.30;99.90
1225;DHT22;602;48.000;7.840;2022-10-15T07:30:21;17.30;99.90
1225;DHT22;602;48.000;7.840;2022-10-15T07:32:48;17.30;99.90
1225;DHT22;602;48.000;7.840;2022-10-15T07:35:15;17.40;99.90
1225;DHT22;602;48.000;7.840;2022-10-15T07:37:41;17.40;99.90
1225;DHT22;602;48.000;7.840;2022-10-15T07:40:09;17.40;99.90
1225;DHT22;602;48.000;7.840;2022-10-15T07:42:38;17.50;99.90
1225;DHT22;602;48.000;7.840;2022-10-15T07:45:06;17.60;99.90
1225;DHT22;602;48.000;7.840;2022-10-15T07:47:33;17.60;99.90
1225;DHT22;602;48.000;7.840;2022-10-15T07:50:00;17.70;99.90
1225;DHT22;602;48.000;7.840;2022-10-15T07:52:27;17.80;99.90
1225;DHT22;602;48.000;7.840;2022-10-15T07:54:53;17.80;99.90
1225;DHT22;602;48.000;7.840;2022-10-15T07:57:20;17.90;99.90
1225;DHT22;602;48.000;7.840;2022-10-15T07:59:48;18.10;99.90
1225;DHT22;602;48.000;7.840;2022-10-15T08:02:17;18.20;99.90
1225;DHT22;602;48.000;7.840;2022-10-15T08:04:43;18.30;99.90
1225;DHT22;602;48.000;7.840;2022-10-15T08:07:10;18.30;99.90
1225;DHT22;602;48.000;7.840;2022-10-15T08:09:37;18.30;99.90
1225;DHT22;602;48.000;7.840;2022-10-15T08:12:04;18.40;99.90
1225;DHT22;602;48.000;7.840;2022-10-15T08:14:32;18.50;99.90
1225;DHT22;602;48.000;7.840;2022-10-15T08:17:03;18.50;99.90
1225;DHT22;602;48.000;7.840;2022-10-15T08:19:30;18.70;99.90
1225;DHT22;602;48.000;7.840;2022-10-15T08:21:57;18.80;99.90
1225;DHT22;602;48.000;7.840;2022-10-15T08:24:24;19.10;99.90
1225;DHT22;602;48.000;7.840;2022-10-15T08:26:51;19.20;99.90
1225;DHT22;602;48.000;7.840;2022-10-15T08:29:18;19.40;99.90
1225;DHT22;602;48.000;7.840;2022-10-15T08:31:44;19.50;99.90
1225;DHT22;602;48.000;7.840;2022-10-15T08:34:13;19.30;99.90
1225;DHT22;602;48.000;7.840;2022-10-15T08:36:39;19.30;99.90
1225;DHT22;602;48.000;7.840;2022-10-15T08:39:06;19.40;99.90
1225;DHT22;602;48.000;7.840;2022-10-15T08:41:37;19.40;99.90
1225;DHT22;602;48.000;7.840;2022-10-15T08:44:06;19.40;99.90
1225;DHT22;602;48.000;7.840;2022-10-15T08:46:41;19.40;99.90
1225;DHT22;602;48.000;7.840;2022-10-15T08:52:03;19.20;99.90
1225;DHT22;602;48.000;7.840;2022-10-15T08:54:32;19.20;99.90
1225;DHT22;602;48.000;7.840;2022-10-15T08:57:16;19.10;99.90
1225;DHT22;602;48.000;7.840;2022-10-15T08:59:51;18.90;99.90
1225;DHT22;602;48.000;7.840;2022-10-15T09:02:23;18.90;99.90
1225;DHT22;602;48.000;7.840;2022-10-15T09:04:54;18.90;99.90
1225;DHT22;602;48.000;7.840;2022-10-15T09:07:30;18.90;99.90
1225;DHT22;602;48.000;7.840;2022-10-15T09:10:09;18.90;99.90
1225;DHT22;602;48.000;7.840;2022-10-15T09:12:45;19.00;99.90
1225;DHT22;602;48.000;7.840;2022-10-15T09:15:14;19.00;99.90
1225;DHT22;602;48.000;7.840;2022-10-15T09:17:45;19.00;99.90
1225;DHT22;602;48.000;7.840;2022-10-15T09:20:16;19.00;99.90
1225;DHT22;602;48.000;7.840;2022-10-15T09:22:45;18.90;99.90
1225;DHT22;602;48.000;7.840;2022-10-15T09:25:16;18.90;99.90
1225;DHT22;602;48.000;7.840;2022-10-15T09:27:45;18.90;99.90
1225;DHT22;602;48.000;7.840;2022-10-15T09:30:23;18.80;99.90
1225;DHT22;602;48.000;7.840;2022-10-15T09:32:56;18.90;99.90
1225;DHT22;602;48.000;7.840;2022-10-15T09:35:27;18.90;99.90
1225;DHT22;602;48.000;7.840;2022-10-15T09:38:03;19.10;99.90
1225;DHT22;602;48.000;7.840;2022-10-15T09:40:51;19.10;99.90
1225;DHT22;602;48.000;7.840;2022-10-15T09:43:24;19.00;99.90
1225;DHT22;602;48.000;7.840;2022-10-15T09:45:55;19.10;99.90
1225;DHT22;602;48.000;7.840;2022-10-15T09:48:23;19.10;99.90
1225;DHT22;602;48.000;7.840;2022-10-15T09:50:55;19.00;99.90
1225;DHT22;602;48.000;7.840;2022-10-15T09:53:34;18.90;99.90
1225;DHT22;602;48.000;7.840;2022-10-15T09:56:09;18.90;99.90
1225;DHT22;602;48.000;7.840;2022-10-15T09:58:43;19.10;99.90
1225;DHT22;602;48.000;7.840;2022-10-15T10:01:17;19.10;99.90
1225;DHT22;602;48.000;7.840;2022-10-15T10:03:44;19.10;99.90
1225;DHT22;602;48.000;7.840;2022-10-15T10:06:14;19.00;99.90
1225;DHT22;602;48.000;7.840;2022-10-15T10:08:50;18.90;99.90
1225;DHT22;602;48.000;7.840;2022-10-15T10:11:18;18.90;99.90
1225;DHT22;602;48.000;7.840;2022-10-15T10:13:50;19.00;99.90
1225;DHT22;602;48.000;7.840;2022-10-15T10:16:18;19.10;99.90
1225;DHT22;602;48.000;7.840;2022-10-15T10:19:04;19.20;99.90
1225;DHT22;602;48.000;7.840;2022-10-15T10:21:34;19.20;99.90
1225;DHT22;602;48.000;7.840;2022-10-15T10:24:23;19.10;99.90
1225;DHT22;602;48.000;7.840;2022-10-15T10:26:53;19.20;99.90
1225;DHT22;602;48.000;7.840;2022-10-15T10:29:21;19.20;99.90
1225;DHT22;602;48.000;7.840;2022-10-15T10:31:48;19.10;99.90
1225;DHT22;602;48.000;7.840;2022-10-15T10:34:20;19.20;99.90
1225;DHT22;602;48.000;7.840;2022-10-15T10:36:50;19.30;99.90
1225;DHT22;602;48.000;7.840;2022-10-15T10:39:27;19.30;99.90
1225;DHT22;602;48.000;7.840;2022-10-15T10:42:03;19.30;99.90
1225;DHT22;602;48.000;7.840;2022-10-15T10:44:38;19.30;99.90
1225;DHT22;602;48.000;7.840;2022-10-15T10:47:16;19.30;99.90
1225;DHT22;602;48.000;7.840;2022-10-15T10:49:59;19.30;99.90
1225;DHT22;602;48.000;7.840;2022-10-15T10:52:36;19.30;99.90
1225;DHT22;602;48.000;7.840;2022-10-15T10:55:19;19.30;99.90
1225;DHT22;602;48.000;7.840;2022-10-15T10:57:56;19.30;99.90
1225;DHT22;602;48.000;7.840;2022-10-15T11:00:34;19.40;99.90
1225;DHT22;602;48.000;7.840;2022-10-15T11:03:03;19.40;99.90
1225;DHT22;602;48.000;7.840;2022-10-15T11:05:33;19.40;99.90
1225;DHT22;602;48.000;7.840;2022-10-15T11:08:04;19.50;99.90
1225;DHT22;602;48.000;7.840;2022-10-15T11:10:38;19.60;99.90
1225;DHT22;602;48.000;7.840;2022-10-15T11:13:19;19.60;99.90
1225;DHT22;602;48.000;7.840;2022-10-15T11:15:56;19.80;99.90
1225;DHT22;602;48.000;7.840;2022-10-15T11:20:24;19.90;99.90
1225;DHT22;602;48.000;7.840;2022-10-15T11:22:22;19.90;99.90
1225;DHT22;602;48.000;7.840;2022-10-15T11:25:02;20.00;99.90
1225;DHT22;602;48.000;7.840;2022-10-15T11:27:55;20.10;99.90
1225;DHT22;602;48.000;7.840;2022-10-15T11:30:49;20.10;99.90
1225;DHT22;602;48.000;7.840;2022-10-15T11:33:29;20.20;99.90
1225;DHT22;602;48.000;7.840;2022-10-15T11:36:28;20.30;99.90
1225;DHT22;602;48.000;7.840;2022-10-15T11:39:16;20.60;99.90
1225;DHT22;602;48.000;7.840;2022-10-15T11:42:02;21.00;99.90
1225;DHT22;602;48.000;7.840;2022-10-15T11:44:54;21.30;99.90
1225;DHT22;602;48.000;7.840;2022-10-15T11:47:31;21.50;99.90
1225;DHT22;602;48.000;7.840;2022-10-15T11:50:10;21.50;99.90
1225;DHT22;602;48.000;7.840;2022-10-15T11:52:50;21.40;99.90
1225;DHT22;602;48.000;7.840;2022-10-15T11:55:23;21.30;99.90
1225;DHT22;602;48.000;7.840;2022-10-15T11:57:56;21.20;99.90
1225;DHT22;602;48.000;7.840;2022-10-15T12:00:30;21.20;99.90
1225;DHT22;602;48.000;7.840;2022-10-15T12:03:03;21.20;99.90
1225;DHT22;602;48.000;7.840;2022-10-15T12:05:34;21.20;99.90
1225;DHT22;602;48.000;7.840;2022-10-15T12:08:03;21.10;99.90
1225;DHT22;602;48.000;7.840;2022-10-15T12:10:38;21.10;99.90
1225;DHT22;602;48.000;7.840;2022-10-15T12:13:11;21.10;99.90
1225;DHT22;602;48.000;7.840;2022-10-15T12:15:46;21.10;99.90
1225;DHT22;602;48.000;7.840;2022-10-15T12:18:21;21.10;99.90
1225;DHT22;602;48.000;7.840;2022-10-15T12:20:51;21.10;99.90
1225;DHT22;602;48.000;7.840;2022-10-15T12:23:24;21.10;99.90
1225;DHT22;602;48.000;7.840;2022-10-15T12:25:51;21.10;99.90
1225;DHT22;602;48.000;7.840;2022-10-15T12:28:20;21.10;99.90
1225;DHT22;602;48.000;7.840;2022-10-15T12:30:59;21.10;99.90
1225;DHT22;602;48.000;7.840;2022-10-15T12:33:34;21.00;99.90
1225;DHT22;602;48.000;7.840;2022-10-15T12:36:04;20.90;99.90
1225;DHT22;602;48.000;7.840;2022-10-15T12:38:36;20.90;99.90
1225;DHT22;602;48.000;7.840;2022-10-15T12:41:06;20.80;99.90
1225;DHT22;602;48.000;7.840;2022-10-15T12:43:36;20.80;99.90
1225;DHT22;602;48.000;7.840;2022-10-15T12:46:07;20.80;99.90
1225;DHT22;602;48.000;7.840;2022-10-15T12:48:37;20.70;99.90
1225;DHT22;602;48.000;7.840;2022-10-15T12:51:37;20.80;99.90
1225;DHT22;602;48.000;7.840;2022-10-15T12:54:32;20.80;99.90
1225;DHT22;602;48.000;7.840;2022-10-15T12:56:59;20.90;99.90
1225;DHT22;602;48.000;7.840;2022-10-15T12:59:30;20.90;99.90
1225;DHT22;602;48.000;7.840;2022-10-15T13:02:34;20.80;99.90
1225;DHT22;602;48.000;7.840;2022-10-15T13:05:02;20.80;99.90
1225;DHT22;602;48.000;7.840;2022-10-15T13:07:31;20.80;99.90
1225;DHT22;602;48.000;7.840;2022-10-15T13:09:58;20.80;99.90
1225;DHT22;602;48.000;7.840;2022-10-15T13:12:27;20.80;99.90
1225;DHT22;602;48.000;7.840;2022-10-15T13:14:58;20.70;99.90
1225;DHT22;602;48.000;7.840;2022-10-15T13:17:28;20.60;99.90
1225;DHT22;602;48.000;7.840;2022-10-15T13:19:58;20.60;99.90
1225;DHT22;602;48.000;7.840;2022-10-15T13:22:29;20.50;99.90
1225;DHT22;602;48.000;7.840;2022-10-15T13:24:56;20.60;99.90
1225;DHT22;602;48.000;7.840;2022-10-15T13:27:25;20.70;99.90
1225;DHT22;602;48.000;7.840;2022-10-15T13:29:56;20.70;99.90
1225;DHT22;602;48.000;7.840;2022-10-15T13:32:25;20.60;99.90
1225;DHT22;602;48.000;7.840;2022-10-15T13:34:52;20.60;99.90
1225;DHT22;602;48.000;7.840;2022-10-15T13:37:28;20.60;99.90
1225;DHT22;602;48.000;7.840;2022-10-15T13:39:57;20.60;99.90
1225;DHT22;602;48.000;7.840;2022-10-15T13:42:25;20.60;99.90
1225;DHT22;602;48.000;7.840;2022-10-15T13:44:57;20.60;99.90
1225;DHT22;602;48.000;7.840;2022-10-15T13:47:27;20.60;99.90
1225;DHT22;602;48.000;7.840;2022-10-15T13:50:16;20.60;99.90
1225;DHT22;602;48.000;7.840;2022-10-15T13:52:47;20.50;99.90
1225;DHT22;602;48.000;7.840;2022-10-15T13:55:18;20.50;99.90
1225;DHT22;602;48.000;7.840;2022-10-15T13:57:46;20.60;99.90
1225;DHT22;602;48.000;7.840;2022-10-15T14:00:23;20.60;99.90
1225;DHT22;602;48.000;7.840;2022-10-15T14:03:15;20.50;99.90
1225;DHT22;602;48.000;7.840;2022-10-15T14:05:42;20.60;99.90
1225;DHT22;602;48.000;7.840;2022-10-15T14:08:19;20.70;99.90
1225;DHT22;602;48.000;7.840;2022-10-15T14:10:47;20.70;99.90
1225;DHT22;602;48.000;7.840;2022-10-15T14:13:14;20.70;99.90
1225;DHT22;602;48.000;7.840;2022-10-15T14:16:00;20.70;99.90
1225;DHT22;602;48.000;7.840;2022-10-15T14:18:34;20.80;99.90
1225;DHT22;602;48.000;7.840;2022-10-15T14:21:02;20.90;99.90
1225;DHT22;602;48.000;7.840;2022-10-15T14:23:31;20.90;99.90
1225;DHT22;602;48.000;7.840;2022-10-15T14:25:59;20.90;99.90
1225;DHT22;602;48.000;7.840;2022-10-15T14:28:28;20.90;99.90
1225;DHT22;602;48.000;7.840;2022-10-15T14:30:56;20.90;99.90
1225;DHT22;602;48.000;7.840;2022-10-15T14:33:32;20.80;99.90
1225;DHT22;602;48.000;7.840;2022-10-15T14:36:04;20.90;99.90
1225;DHT22;602;48.000;7.840;2022-10-15T14:38:33;20.80;99.90
1225;DHT22;602;48.000;7.840;2022-10-15T14:41:02;20.90;99.90
1225;DHT22;602;48.000;7.840;2022-10-15T14:43:34;20.90;99.90
1225;DHT22;602;48.000;7.840;2022-10-15T14:46:03;20.90;99.90
1225;DHT22;602;48.000;7.840;2022-10-15T14:48:33;20.90;99.90
1225;DHT22;602;48.000;7.840;2022-10-15T14:51:06;20.80;99.90
1225;DHT22;602;48.000;7.840;2022-10-15T14:53:36;20.80;99.90
1225;DHT22;602;48.000;7.840;2022-10-15T14:56:08;20.80;99.90
1225;DHT22;602;48.000;7.840;2022-10-15T14:58:36;20.80;99.90
1225;DHT22;602;48.000;7.840;2022-10-15T15:01:06;20.80;99.90
1225;DHT22;602;48.000;7.840;2022-10-15T15:03:52;20.80;99.90
1225;DHT22;602;48.000;7.840;2022-10-15T15:06:24;20.80;99.90
1225;DHT22;602;48.000;7.840;2022-10-15T15:08:54;20.80;99.90
1225;DHT22;602;48.000;7.840;2022-10-15T15:11:23;20.80;99.90
1225;DHT22;602;48.000;7.840;2022-10-15T15:13:53;20.80;99.90
1225;DHT22;602;48.000;7.840;2022-10-15T15:16:22;20.70;99.90
1225;DHT22;602;48.000;7.840;2022-10-15T15:18:49;20.60;99.90
1225;DHT22;602;48.000;7.840;2022-10-15T15:21:19;20.60;99.90
1225;DHT22;602;48.000;7.840;2022-10-15T15:23:47;20.70;99.90
1225;DHT22;602;48.000;7.840;2022-10-15T15:26:16;20.60;99.90
1225;DHT22;602;48.000;7.840;2022-10-15T15:28:43;20.50;99.90
1225;DHT22;602;48.000;7.840;2022-10-15T15:31:13;20.50;99.90
1225;DHT22;602;48.000;7.840;2022-10-15T15:33:41;20.50;99.90
1225;DHT22;602;48.000;7.840;2022-10-15T15:36:11;20.60;99.90
1225;DHT22;602;48.000;7.840;2022-10-15T15:38:39;20.60;99.90
1225;DHT22;602;48.000;7.840;2022-10-15T15:41:12;20.70;99.90
1225;DHT22;602;48.000;7.840;2022-10-15T15:43:40;20.60;99.90
1225;DHT22;602;48.000;7.840;2022-10-15T15:46:08;20.60;99.90
1225;DHT22;602;48.000;7.840;2022-10-15T15:48:35;20.60;99.90
1225;DHT22;602;48.000;7.840;2022-10-15T15:51:04;20.50;99.90
1225;DHT22;602;48.000;7.840;2022-10-15T15:53:32;20.40;99.90
1225;DHT22;602;48.000;7.840;2022-10-15T15:55:59;20.20;99.90
1225;DHT22;602;48.000;7.840;2022-10-15T15:58:26;20.10;99.90
1225;DHT22;602;48.000;7.840;2022-10-15T16:00:54;20.20;99.90
1225;DHT22;602;48.000;7.840;2022-10-15T16:03:21;20.10;99.90
1225;DHT22;602;48.000;7.840;2022-10-15T16:05:48;20.10;99.90
1225;DHT22;602;48.000;7.840;2022-10-15T16:08:15;20.10;99.90
1225;DHT22;602;48.000;7.840;2022-10-15T16:10:42;20.00;99.90
1225;DHT22;602;48.000;7.840;2022-10-15T16:15:48;20.00;99.90
1225;DHT22;602;48.000;7.840;2022-10-15T16:18:17;19.90;99.90
1225;DHT22;602;48.000;7.840;2022-10-15T16:20:44;19.90;99.90
1225;DHT22;602;48.000;7.840;2022-10-15T16:23:10;19.80;99.90
1225;DHT22;602;48.000;7.840;2022-10-15T16:25:37;19.80;99.90
1225;DHT22;602;48.000;7.840;2022-10-15T16:28:04;19.80;99.90
1225;DHT22;602;48.000;7.840;2022-10-15T16:30:31;19.80;99.90
1225;DHT22;602;48.000;7.840;2022-10-15T16:32:58;19.80;99.90
1225;DHT22;602;48.000;7.840;2022-10-15T16:35:26;19.80;99.90
1225;DHT22;602;48.000;7.840;2022-10-15T16:37:53;19.90;99.90
1225;DHT22;602;48.000;7.840;2022-10-15T16:40:20;20.00;99.90
1225;DHT22;602;48.000;7.840;2022-10-15T16:42:47;19.90;99.90
1225;DHT22;602;48.000;7.840;2022-10-15T16:45:14;19.90;99.90
1225;DHT22;602;48.000;7.840;2022-10-15T16:47:41;19.90;99.90
1225;DHT22;602;48.000;7.840;2022-10-15T16:50:08;19.80;99.90
1225;DHT22;602;48.000;7.840;2022-10-15T16:52:37;19.80;99.90
1225;DHT22;602;48.000;7.840;2022-10-15T16:55:04;19.80;99.90
1225;DHT22;602;48.000;7.840;2022-10-15T16:57:31;19.80;99.90